Time,TemperatureF,DewpointF,PressureIn,WindDirection,WindDirectionDegrees,WindSpeedMPH,WindSpeedGustMPH,Humidity,HourlyPrecipIn,Conditions,Clouds,dailyrainin,SoftwareType,DateUTC
2013-04-22 00:05:00,49.6,28.0,29.83,NW,305,7.0,8.0,43,0.00,,,0.00,Wunderground v.1.15,2013-04-22 06:05:00,
2013-04-22 00:15:00,49.1,28.1,29.83,East,99,3.0,5.0,44,0.00,,,0.00,Wunderground v.1.15,2013-04-22 06:15:00,
2013-04-22 00:20:00,49.0,28.6,29.83,West,278,3.0,3.0,45,0.00,,,0.00,Wunderground v.1.15,2013-04-22 06:20:00,
2013-04-22 00:25:00,48.5,28.1,29.83,South,191,2.0,3.0,45,0.00,,,0.00,Wunderground v.1.15,2013-04-22 06:25:00,
2013-04-22 00:30:00,48.0,28.7,29.83,NNW,340,1.0,1.0,47,0.00,,,0.00,Wunderground v.1.15,2013-04-22 06:30:00,
2013-04-22 00:35:00,47.4,28.7,29.83,West,262,1.0,1.0,48,0.00,,,0.00,Wunderground v.1.15,2013-04-22 06:35:00,
2013-04-22 00:40:00,47.3,28.6,29.83,West,264,2.0,5.0,48,0.00,,,0.00,Wunderground v.1.15,2013-04-22 06:40:00,
2013-04-22 00:45:00,47.3,28.6,29.83,NE,54,2.0,5.0,48,0.00,,,0.00,Wunderground v.1.15,2013-04-22 06:45:00,
2013-04-22 00:55:00,46.8,29.6,29.84,East,84,0.0,3.0,51,0.00,,,0.00,Wunderground v.1.15,2013-04-22 06:55:00,
2013-04-22 01:00:00,46.4,30.2,29.84,SSW,208,1.0,1.0,53,0.00,,,0.00,Wunderground v.1.15,2013-04-22 07:00:00,
2013-04-22 01:05:00,46.0,29.8,29.83,WSW,253,1.0,1.0,53,0.00,,,0.00,Wunderground v.1.15,2013-04-22 07:05:00,
2013-04-22 01:15:00,46.0,29.3,29.83,WNW,295,2.0,6.0,52,0.00,,,0.00,Wunderground v.1.15,2013-04-22 07:15:00,
2013-04-22 01:20:00,46.4,29.7,29.83,SW,219,3.0,5.0,52,0.00,,,0.00,Wunderground v.1.15,2013-04-22 07:20:00,
2013-04-22 01:25:00,46.1,29.4,29.82,NNW,332,3.0,5.0,52,0.00,,,0.00,Wunderground v.1.15,2013-04-22 07:25:00,
2013-04-22 01:30:00,46.6,29.9,29.81,North,4,3.0,3.0,52,0.00,,,0.00,Wunderground v.1.15,2013-04-22 07:30:00,
2013-04-22 01:40:00,46.4,30.2,29.79,West,265,2.0,2.0,53,0.00,,,0.00,Wunderground v.1.15,2013-04-22 07:40:00,
2013-04-22 01:50:00,45.9,30.6,29.78,NNW,348,1.0,2.0,55,0.00,,,0.00,Wunderground v.1.15,2013-04-22 07:50:00,
2013-04-22 01:55:00,45.9,30.6,29.78,NNE,23,1.0,2.0,55,0.00,,,0.00,Wunderground v.1.15,2013-04-22 07:55:00,
2013-04-22 02:00:00,45.3,30.5,29.78,WSW,240,1.0,1.0,56,0.00,,,0.00,Wunderground v.1.15,2013-04-22 08:00:00,
2013-04-22 02:05:00,44.0,30.2,29.78,WSW,241,0.0,1.0,58,0.00,,,0.00,Wunderground v.1.15,2013-04-22 08:05:00,
2013-04-22 02:15:00,43.2,30.6,29.77,East,80,0.0,1.0,61,0.00,,,0.00,Wunderground v.1.15,2013-04-22 08:15:00,
2013-04-22 02:20:00,42.6,30.5,29.77,WSW,255,1.0,2.0,62,0.00,,,0.00,Wunderground v.1.15,2013-04-22 08:20:00,
2013-04-22 02:30:00,42.4,30.7,29.76,West,269,2.0,2.0,63,0.00,,,0.00,Wunderground v.1.15,2013-04-22 08:30:00,
2013-04-22 02:35:00,42.5,30.4,29.76,West,266,2.0,2.0,62,0.00,,,0.00,Wunderground v.1.15,2013-04-22 08:35:00,
2013-04-22 02:40:00,42.9,30.4,29.75,North,354,2.0,2.0,61,0.00,,,0.00,Wunderground v.1.15,2013-04-22 08:40:00,
2013-04-22 02:45:00,42.5,30.4,29.75,West,271,1.0,2.0,62,0.00,,,0.00,Wunderground v.1.15,2013-04-22 08:45:00,
2013-04-22 02:50:00,42.2,30.5,29.75,West,270,1.0,1.0,63,0.00,,,0.00,Wunderground v.1.15,2013-04-22 08:50:00,
2013-04-22 03:00:00,41.8,30.5,29.75,NE,37,0.0,0.0,64,0.00,,,0.00,Wunderground v.1.15,2013-04-22 09:00:00,
2013-04-22 03:05:00,41.7,30.4,29.75,WSW,248,0.0,0.0,64,0.00,,,0.00,Wunderground v.1.15,2013-04-22 09:05:00,
2013-04-22 03:15:00,41.0,30.5,29.75,ESE,117,0.0,0.0,66,0.00,,,0.00,Wunderground v.1.15,2013-04-22 09:15:00,
2013-04-22 03:20:00,41.2,31.1,29.75,WNW,294,1.0,4.0,67,0.00,,,0.00,Wunderground v.1.15,2013-04-22 09:20:00,
2013-04-22 03:25:00,42.4,31.1,29.75,East,84,2.0,4.0,64,0.00,,,0.00,Wunderground v.1.15,2013-04-22 09:25:00,
2013-04-22 03:30:00,42.1,31.2,29.76,SW,228,1.0,1.0,65,0.00,,,0.00,Wunderground v.1.15,2013-04-22 09:30:00,
2013-04-22 03:35:00,41.5,31.0,29.76,NW,304,1.0,2.0,66,0.00,,,0.00,Wunderground v.1.15,2013-04-22 09:35:00,
2013-04-22 03:40:00,41.9,31.4,29.77,WNW,287,2.0,3.0,66,0.00,,,0.00,Wunderground v.1.15,2013-04-22 09:40:00,
2013-04-22 03:45:00,43.2,31.4,29.77,WSW,253,3.0,3.0,63,0.00,,,0.00,Wunderground v.1.15,2013-04-22 09:45:00,
2013-04-22 03:50:00,42.7,32.1,29.78,West,259,2.0,2.0,66,0.00,,,0.00,Wunderground v.1.15,2013-04-22 09:50:00,
2013-04-22 04:00:00,43.1,31.7,29.78,North,6,1.0,1.0,64,0.00,,,0.00,Wunderground v.1.15,2013-04-22 10:00:00,
2013-04-22 04:05:00,42.9,31.9,29.78,WNW,290,1.0,1.0,65,0.00,,,0.00,Wunderground v.1.15,2013-04-22 10:05:00,
2013-04-22 04:15:00,41.6,32.2,29.78,SW,233,1.0,2.0,69,0.00,,,0.00,Wunderground v.1.15,2013-04-22 10:15:00,
2013-04-22 04:20:00,41.5,32.1,29.79,North,352,2.0,2.0,69,0.00,,,0.00,Wunderground v.1.15,2013-04-22 10:20:00,
2013-04-22 04:25:00,42.9,31.9,29.79,NW,323,3.0,3.0,65,0.00,,,0.00,Wunderground v.1.15,2013-04-22 10:25:00,
2013-04-22 04:30:00,44.3,32.1,29.81,NNW,338,3.0,5.0,62,0.00,,,0.00,Wunderground v.1.15,2013-04-22 10:30:00,
2013-04-22 04:40:00,44.5,32.3,29.77,SSW,201,3.0,3.0,62,0.00,,,0.00,Wunderground v.1.15,2013-04-22 10:40:00,
2013-04-22 04:45:00,44.0,33.4,29.77,NNE,32,1.0,3.0,66,0.00,,,0.00,Wunderground v.1.15,2013-04-22 10:45:00,
2013-04-22 04:50:00,43.2,33.0,29.78,NE,46,0.0,0.0,67,0.00,,,0.00,Wunderground v.1.15,2013-04-22 10:50:00,
2013-04-22 04:55:00,42.7,32.9,29.78,SW,222,1.0,2.0,68,0.00,,,0.00,Wunderground v.1.15,2013-04-22 10:55:00,
2013-04-22 05:00:00,42.4,32.6,29.78,East,83,1.0,2.0,68,0.00,,,0.00,Wunderground v.1.15,2013-04-22 11:00:00,
2013-04-22 05:05:00,41.9,32.8,29.79,SSE,153,1.0,2.0,70,0.00,,,0.00,Wunderground v.1.15,2013-04-22 11:05:00,
2013-04-22 05:15:00,41.1,33.4,29.77,NE,54,1.0,1.0,74,0.00,,,0.00,Wunderground v.1.15,2013-04-22 11:15:00,
2013-04-22 05:25:00,40.4,33.4,29.77,NE,54,1.0,1.0,76,0.00,,,0.00,Wunderground v.1.15,2013-04-22 11:25:00,
2013-04-22 05:30:00,40.2,33.9,29.77,NE,49,1.0,1.0,78,0.00,,,0.00,Wunderground v.1.15,2013-04-22 11:30:00,
2013-04-22 05:35:00,40.0,34.0,29.77,ENE,70,1.0,2.0,79,0.00,,,0.00,Wunderground v.1.15,2013-04-22 11:35:00,
2013-04-22 05:40:00,39.9,33.9,29.77,NNE,32,1.0,1.0,79,0.00,,,0.00,Wunderground v.1.15,2013-04-22 11:40:00,
2013-04-22 05:50:00,39.6,34.2,29.76,ENE,65,1.0,1.0,81,0.00,,,0.00,Wunderground v.1.15,2013-04-22 11:50:00,
2013-04-22 05:55:00,39.5,34.2,29.77,East,84,1.0,1.0,81,0.00,,,0.00,Wunderground v.1.15,2013-04-22 11:55:00,
2013-04-22 06:00:00,39.3,34.3,29.77,ENE,70,1.0,2.0,82,0.00,,,0.00,Wunderground v.1.15,2013-04-22 12:00:00,
2013-04-22 06:05:00,39.1,34.4,29.77,North,349,1.0,2.0,83,0.00,,,0.00,Wunderground v.1.15,2013-04-22 12:05:00,
2013-04-22 06:15:00,39.0,34.9,29.78,East,90,1.0,1.0,85,0.00,,,0.00,Wunderground v.1.15,2013-04-22 12:15:00,
2013-04-22 06:25:00,38.8,35.0,29.78,NE,52,1.0,1.0,86,0.00,,,0.00,Wunderground v.1.15,2013-04-22 12:25:00,
2013-04-22 06:30:00,39.0,34.9,29.78,NNE,24,1.0,5.0,85,0.00,,,0.00,Wunderground v.1.15,2013-04-22 12:30:00,
2013-04-22 06:35:00,39.2,35.1,29.78,NE,56,1.0,5.0,85,0.00,,,0.00,Wunderground v.1.15,2013-04-22 12:35:00,
2013-04-22 06:40:00,39.2,35.1,29.78,ENE,67,1.0,1.0,85,0.00,,,0.00,Wunderground v.1.15,2013-04-22 12:40:00,
2013-04-22 06:50:00,39.1,34.7,29.78,East,79,1.0,1.0,84,0.00,,,0.00,Wunderground v.1.15,2013-04-22 12:50:00,
2013-04-22 06:55:00,38.9,34.5,29.78,East,79,0.0,1.0,84,0.00,,,0.00,Wunderground v.1.15,2013-04-22 12:55:00,
2013-04-22 07:00:00,38.9,34.8,29.78,NNE,15,0.0,0.0,85,0.00,,,0.00,Wunderground v.1.15,2013-04-22 13:00:00,
2013-04-22 07:20:00,41.9,36.5,29.78,East,98,0.0,1.0,81,0.00,,,0.00,Wunderground v.1.15,2013-04-22 13:20:00,
2013-04-22 07:25:00,42.6,36.2,29.78,SSW,203,0.0,1.0,78,0.00,,,0.00,Wunderground v.1.15,2013-04-22 13:25:00,
2013-04-22 07:35:00,43.3,36.6,29.78,SW,228,0.0,1.0,77,0.00,,,0.00,Wunderground v.1.15,2013-04-22 13:35:00,
2013-04-22 07:40:00,43.5,36.4,29.78,SW,236,1.0,1.0,76,0.00,,,0.00,Wunderground v.1.15,2013-04-22 13:40:00,
2013-04-22 07:45:00,44.0,36.9,29.78,South,174,1.0,1.0,76,0.00,,,0.00,Wunderground v.1.15,2013-04-22 13:45:00,
2013-04-22 07:50:00,44.7,36.6,29.78,SSW,205,1.0,2.0,73,0.00,,,0.00,Wunderground v.1.15,2013-04-22 13:50:00,
2013-04-22 07:55:00,44.5,36.0,29.78,NNE,32,1.0,2.0,72,0.00,,,0.00,Wunderground v.1.15,2013-04-22 13:55:00,
2013-04-22 08:00:00,45.1,36.6,29.78,East,84,1.0,1.0,72,0.00,,,0.00,Wunderground v.1.15,2013-04-22 14:00:00,
2013-04-22 08:05:00,45.6,36.7,29.78,ENE,78,2.0,2.0,71,0.00,,,0.00,Wunderground v.1.15,2013-04-22 14:05:00,
2013-04-22 08:15:00,47.1,37.1,29.78,SE,131,1.0,2.0,68,0.00,,,0.00,Wunderground v.1.15,2013-04-22 14:15:00,
2013-04-22 08:25:00,48.3,37.1,29.77,SE,138,1.0,1.0,65,0.00,,,0.00,Wunderground v.1.15,2013-04-22 14:25:00,
2013-04-22 08:30:00,48.9,37.3,29.77,ESE,110,0.0,1.0,64,0.00,,,0.00,Wunderground v.1.15,2013-04-22 14:30:00,
2013-04-22 08:35:00,49.2,36.3,29.77,NE,56,1.0,1.0,61,0.00,,,0.00,Wunderground v.1.15,2013-04-22 14:35:00,
2013-04-22 08:40:00,48.7,36.7,29.77,ENE,75,1.0,1.0,63,0.00,,,0.00,Wunderground v.1.15,2013-04-22 14:40:00,
2013-04-22 08:45:00,48.6,36.6,29.77,SSE,159,2.0,2.0,63,0.00,,,0.00,Wunderground v.1.15,2013-04-22 14:45:00,
2013-04-22 08:50:00,48.5,36.5,29.78,East,88,3.0,4.0,63,0.00,,,0.00,Wunderground v.1.15,2013-04-22 14:50:00,
2013-04-22 08:55:00,48.9,37.3,29.78,NE,50,3.0,4.0,64,0.00,,,0.00,Wunderground v.1.15,2013-04-22 14:55:00,
2013-04-22 09:00:00,49.3,37.2,29.78,ESE,110,2.0,2.0,63,0.00,,,0.00,Wunderground v.1.15,2013-04-22 15:00:00,
2013-04-22 09:05:00,48.5,36.1,29.78,ENE,60,3.0,3.0,62,0.00,,,0.00,Wunderground v.1.15,2013-04-22 15:05:00,
2013-04-22 09:15:00,46.7,35.9,29.79,NE,56,4.0,4.0,66,0.00,,,0.00,Wunderground v.1.15,2013-04-22 15:15:00,
2013-04-22 09:25:00,42.8,33.3,29.80,ESE,117,6.0,6.0,69,0.00,,,0.00,Wunderground v.1.15,2013-04-22 15:25:00,
2013-04-22 09:30:00,41.5,33.1,29.80,NE,54,6.0,6.0,72,0.00,,,0.00,Wunderground v.1.15,2013-04-22 15:30:00,
2013-04-22 09:35:00,41.0,33.0,29.80,NNE,33,4.0,6.0,73,0.00,,,0.00,Wunderground v.1.15,2013-04-22 15:35:00,
2013-04-22 09:40:00,40.8,32.8,29.81,NNW,329,3.0,3.0,73,0.00,,,0.00,Wunderground v.1.15,2013-04-22 15:40:00,
2013-04-22 09:45:00,40.5,32.5,29.81,ENE,68,3.0,3.0,73,0.00,,,0.00,Wunderground v.1.15,2013-04-22 15:45:00,
2013-04-22 09:55:00,40.6,33.0,29.82,SSE,166,3.0,3.0,74,0.00,,,0.00,Wunderground v.1.15,2013-04-22 15:55:00,
2013-04-22 10:05:00,40.4,32.8,29.83,SW,227,2.0,3.0,74,0.00,,,0.00,Wunderground v.1.15,2013-04-22 16:05:00,
2013-04-22 10:15:00,39.8,32.2,29.83,WSW,253,2.0,4.0,74,0.00,,,0.00,Wunderground v.1.15,2013-04-22 16:15:00,
2013-04-22 10:20:00,39.6,32.0,29.84,ENE,64,3.0,5.0,74,0.00,,,0.00,Wunderground v.1.15,2013-04-22 16:20:00,
2013-04-22 10:30:00,38.7,30.1,29.84,NNW,338,3.0,4.0,71,0.00,,,0.00,Wunderground v.1.15,2013-04-22 16:30:00,
2013-04-22 10:35:00,38.0,29.1,29.85,NNW,340,4.0,7.0,70,0.00,,,0.00,Wunderground v.1.15,2013-04-22 16:35:00,
2013-04-22 10:40:00,37.8,28.5,29.85,East,83,3.0,4.0,69,0.00,,,0.00,Wunderground v.1.15,2013-04-22 16:40:00,
2013-04-22 10:50:00,37.0,27.4,29.87,ENE,58,3.0,3.0,68,0.00,,,0.00,Wunderground v.1.15,2013-04-22 16:50:00,
2013-04-22 10:55:00,36.3,27.1,29.86,ENE,75,4.0,7.0,69,0.00,,,0.00,Wunderground v.1.15,2013-04-22 16:55:00,
2013-04-22 11:00:00,35.7,26.9,29.87,NE,46,5.0,5.0,70,0.00,,,0.00,Wunderground v.1.15,2013-04-22 17:00:00,
2013-04-22 11:05:00,35.5,27.0,29.87,ENE,72,4.0,5.0,71,0.00,,,0.00,Wunderground v.1.15,2013-04-22 17:05:00,
2013-04-22 11:15:00,34.7,26.6,29.88,NW,315,4.0,7.0,72,0.00,,,0.00,Wunderground v.1.15,2013-04-22 17:15:00,
2013-04-22 11:20:00,34.6,26.8,29.89,NNW,338,4.0,5.0,73,0.00,,,0.00,Wunderground v.1.15,2013-04-22 17:20:00,
2013-04-22 11:30:00,34.1,27.0,29.90,ENE,64,4.0,4.0,75,0.00,,,0.00,Wunderground v.1.15,2013-04-22 17:30:00,
2013-04-22 11:40:00,33.6,26.8,29.90,NNE,18,4.0,7.0,76,0.00,,,0.00,Wunderground v.1.15,2013-04-22 17:40:00,
2013-04-22 11:45:00,33.4,27.0,29.91,NE,43,5.0,10.0,77,0.00,,,0.00,Wunderground v.1.15,2013-04-22 17:45:00,
2013-04-22 11:50:00,32.6,26.8,29.91,ENE,64,6.0,8.0,79,0.00,,,0.00,Wunderground v.1.15,2013-04-22 17:50:00,
2013-04-22 11:55:00,32.0,26.5,29.92,NE,50,6.0,8.0,80,0.00,,,0.00,Wunderground v.1.15,2013-04-22 17:55:00,
2013-04-22 12:00:00,31.7,26.5,29.93,NE,40,5.0,6.0,81,0.00,,,0.00,Wunderground v.1.15,2013-04-22 18:00:00,
2013-04-22 12:10:00,31.3,26.1,29.93,East,97,4.0,11.0,81,0.00,,,0.00,Wunderground v.1.15,2013-04-22 18:10:00,
2013-04-22 12:15:00,30.9,25.8,29.94,NNE,29,4.0,11.0,81,0.00,,,0.00,Wunderground v.1.15,2013-04-22 18:15:00,
2013-04-22 12:20:00,30.5,25.7,29.94,East,79,3.0,4.0,82,0.00,,,0.00,Wunderground v.1.15,2013-04-22 18:20:00,
2013-04-22 12:25:00,30.0,25.5,29.94,ENE,75,4.0,10.0,83,0.00,,,0.00,Wunderground v.1.15,2013-04-22 18:25:00,
2013-04-22 12:30:00,29.4,25.7,29.94,ENE,62,6.0,6.0,86,0.00,,,0.00,Wunderground v.1.15,2013-04-22 18:30:00,
2013-04-22 12:35:00,29.2,25.8,29.95,ENE,70,5.0,6.0,87,0.00,,,0.00,Wunderground v.1.15,2013-04-22 18:35:00,
2013-04-22 12:40:00,29.1,26.0,29.96,NW,315,3.0,3.0,88,0.00,,,0.00,Wunderground v.1.15,2013-04-22 18:40:00,
2013-04-22 12:50:00,29.1,26.0,29.96,East,98,3.0,4.0,88,0.00,,,0.00,Wunderground v.1.15,2013-04-22 18:50:00,
2013-04-22 12:55:00,29.1,26.0,29.96,North,356,2.0,4.0,88,0.00,,,0.00,Wunderground v.1.15,2013-04-22 18:55:00,
2013-04-22 13:05:00,29.1,25.7,29.98,NNW,337,3.0,3.0,87,0.00,,,0.00,Wunderground v.1.15,2013-04-22 19:05:00,
2013-04-22 13:15:00,29.2,26.1,29.98,ESE,115,2.0,2.0,88,0.00,,,0.00,Wunderground v.1.15,2013-04-22 19:15:00,
2013-04-22 13:25:00,29.2,26.1,29.99,SSE,149,2.0,6.0,88,0.00,,,0.00,Wunderground v.1.15,2013-04-22 19:25:00,
2013-04-22 13:30:00,29.6,26.8,29.99,SE,124,1.0,1.0,89,0.00,,,0.00,Wunderground v.1.15,2013-04-22 19:30:00,
2013-04-22 13:35:00,29.6,26.5,29.99,ESE,104,1.0,1.0,88,0.00,,,0.00,Wunderground v.1.15,2013-04-22 19:35:00,
2013-04-22 13:45:00,29.7,26.6,29.99,ENE,60,2.0,2.0,88,0.00,,,0.00,Wunderground v.1.15,2013-04-22 19:45:00,
2013-04-22 13:50:00,29.6,26.5,30.00,ENE,72,2.0,4.0,88,0.00,,,0.00,Wunderground v.1.15,2013-04-22 19:50:00,
2013-04-22 14:00:00,29.5,26.4,30.00,ESE,121,2.0,2.0,88,0.00,,,0.00,Wunderground v.1.15,2013-04-22 20:00:00,
2013-04-22 14:05:00,29.3,26.2,30.01,SE,128,2.0,3.0,88,0.00,,,0.00,Wunderground v.1.15,2013-04-22 20:05:00,
2013-04-22 14:15:00,28.9,25.8,30.02,SSE,158,2.0,2.0,88,0.00,,,0.00,Wunderground v.1.15,2013-04-22 20:15:00,
2013-04-22 14:25:00,28.2,25.1,30.02,East,82,4.0,4.0,88,0.00,,,0.00,Wunderground v.1.15,2013-04-22 20:25:00,
2013-04-22 14:30:00,28.1,25.3,30.04,SE,129,3.0,3.0,89,0.00,,,0.00,Wunderground v.1.15,2013-04-22 20:30:00,
2013-04-22 14:35:00,28.1,25.3,30.03,ESE,113,3.0,3.0,89,0.00,,,0.00,Wunderground v.1.15,2013-04-22 20:35:00,
2013-04-22 14:40:00,27.9,25.1,30.04,SSE,156,3.0,3.0,89,0.00,,,0.00,Wunderground v.1.15,2013-04-22 20:40:00,
2013-04-22 14:45:00,27.8,25.0,30.03,NE,49,3.0,3.0,89,0.00,,,0.00,Wunderground v.1.15,2013-04-22 20:45:00,
2013-04-22 14:50:00,27.9,25.3,30.05,ENE,70,2.0,2.0,90,0.00,,,0.00,Wunderground v.1.15,2013-04-22 20:50:00,
2013-04-22 14:55:00,28.0,25.2,30.06,East,86,3.0,3.0,89,0.00,,,0.00,Wunderground v.1.15,2013-04-22 20:55:00,
2013-04-22 15:05:00,28.2,25.1,30.05,East,82,3.0,4.0,88,0.00,,,0.00,Wunderground v.1.15,2013-04-22 21:05:00,
2013-04-22 15:15:00,28.2,25.1,30.05,ENE,65,3.0,3.0,88,0.00,,,0.00,Wunderground v.1.15,2013-04-22 21:15:00,
2013-04-22 15:25:00,28.0,24.9,30.06,ESE,117,3.0,3.0,88,0.00,,,0.00,Wunderground v.1.15,2013-04-22 21:25:00,
2013-04-22 15:30:00,27.9,24.8,30.07,ENE,72,4.0,4.0,88,0.00,,,0.00,Wunderground v.1.15,2013-04-22 21:30:00,
2013-04-22 15:35:00,28.1,25.0,30.07,NE,56,3.0,4.0,88,0.00,,,0.00,Wunderground v.1.15,2013-04-22 21:35:00,
2013-04-22 15:40:00,28.3,25.5,30.07,ESE,115,3.0,3.0,89,0.00,,,0.00,Wunderground v.1.15,2013-04-22 21:40:00,
2013-04-22 15:45:00,28.5,25.4,30.06,ESE,104,2.0,3.0,88,0.00,,,0.00,Wunderground v.1.15,2013-04-22 21:45:00,
2013-04-22 15:50:00,28.5,25.1,30.07,ENE,63,2.0,4.0,87,0.00,,,0.00,Wunderground v.1.15,2013-04-22 21:50:00,
2013-04-22 15:55:00,28.1,24.7,30.07,East,79,3.0,4.0,87,0.00,,,0.00,Wunderground v.1.15,2013-04-22 21:55:00,
2013-04-22 16:00:00,28.0,24.6,30.07,ENE,74,3.0,4.0,87,0.00,,,0.00,Wunderground v.1.15,2013-04-22 22:00:00,
2013-04-22 16:05:00,27.7,24.3,30.07,ENE,65,3.0,4.0,87,0.00,,,0.00,Wunderground v.1.15,2013-04-22 22:05:00,
2013-04-22 16:15:00,27.7,24.6,30.07,ENE,74,2.0,3.0,88,0.00,,,0.00,Wunderground v.1.15,2013-04-22 22:15:00,
2013-04-22 16:20:00,27.4,24.0,30.07,East,98,3.0,3.0,87,0.00,,,0.00,Wunderground v.1.15,2013-04-22 22:20:00,
2013-04-22 16:25:00,27.2,23.6,30.08,SE,135,3.0,3.0,86,0.00,,,0.00,Wunderground v.1.15,2013-04-22 22:25:00,
2013-04-22 16:30:00,27.3,23.9,30.08,East,82,2.0,3.0,87,0.00,,,0.00,Wunderground v.1.15,2013-04-22 22:30:00,
2013-04-22 16:35:00,27.4,24.0,30.08,SE,128,2.0,3.0,87,0.00,,,0.00,Wunderground v.1.15,2013-04-22 22:35:00,
2013-04-22 16:40:00,27.5,23.9,30.09,ESE,104,2.0,2.0,86,0.00,,,0.00,Wunderground v.1.15,2013-04-22 22:40:00,
2013-04-22 16:45:00,27.5,23.9,30.09,NNE,22,1.0,2.0,86,0.00,,,0.00,Wunderground v.1.15,2013-04-22 22:45:00,
2013-04-22 16:50:00,27.5,23.6,30.09,ENE,60,1.0,2.0,85,0.00,,,0.00,Wunderground v.1.15,2013-04-22 22:50:00,
2013-04-22 17:00:00,27.4,23.2,30.10,NNE,26,1.0,2.0,84,0.00,,,0.00,Wunderground v.1.15,2013-04-22 23:00:00,
2013-04-22 17:05:00,27.3,23.1,30.10,East,89,2.0,2.0,84,0.00,,,0.00,Wunderground v.1.15,2013-04-22 23:05:00,
2013-04-22 17:15:00,26.7,22.2,30.11,NW,316,2.0,2.0,83,0.00,,,0.00,Wunderground v.1.15,2013-04-22 23:15:00,
2013-04-22 17:20:00,26.7,22.2,30.11,East,86,2.0,2.0,83,0.00,,,0.00,Wunderground v.1.15,2013-04-22 23:20:00,
2013-04-22 17:30:00,26.6,22.4,30.13,North,358,1.0,2.0,84,0.00,,,0.00,Wunderground v.1.15,2013-04-22 23:30:00,
2013-04-22 17:35:00,26.6,22.4,30.14,East,85,1.0,2.0,84,0.00,,,0.00,Wunderground v.1.15,2013-04-22 23:35:00,
2013-04-22 17:45:00,26.3,21.6,30.14,ENE,74,1.0,1.0,82,0.00,,,0.00,Wunderground v.1.15,2013-04-22 23:45:00,
2013-04-22 17:50:00,26.4,21.9,30.13,SE,144,0.0,2.0,83,0.00,,,0.00,Wunderground v.1.15,2013-04-22 23:50:00,
2013-04-22 17:55:00,26.4,21.9,30.14,East,94,1.0,2.0,83,0.00,,,0.00,Wunderground v.1.15,2013-04-22 23:55:00,
2013-04-22 18:05:00,26.3,22.1,30.14,North,8,1.0,1.0,84,0.00,,,0.00,Wunderground v.1.15,2013-04-23 00:05:00,
2013-04-22 18:15:00,25.9,22.0,30.15,SE,135,1.0,1.0,85,0.00,,,0.00,Wunderground v.1.15,2013-04-23 00:15:00,
2013-04-22 18:25:00,25.4,21.8,30.16,ESE,117,2.0,5.0,86,0.00,,,0.00,Wunderground v.1.15,2013-04-23 00:25:00,
2013-04-22 18:30:00,25.3,22.0,30.16,ESE,110,1.0,1.0,87,0.00,,,0.00,Wunderground v.1.15,2013-04-23 00:30:00,
2013-04-22 18:40:00,25.1,22.0,30.18,ENE,68,1.0,1.0,88,0.00,,,0.00,Wunderground v.1.15,2013-04-23 00:40:00,
2013-04-22 18:45:00,25.1,22.0,30.18,SE,141,1.0,1.0,88,0.00,,,0.00,Wunderground v.1.15,2013-04-23 00:45:00,
2013-04-22 18:50:00,25.0,21.9,30.18,South,181,1.0,1.0,88,0.00,,,0.00,Wunderground v.1.15,2013-04-23 00:50:00,
2013-04-22 19:00:00,24.8,21.8,30.18,East,98,2.0,2.0,88,0.00,,,0.00,Wunderground v.1.15,2013-04-23 01:00:00,
2013-04-22 19:05:00,24.8,21.8,30.21,SSE,152,1.0,2.0,88,0.00,,,0.00,Wunderground v.1.15,2013-04-23 01:05:00,
2013-04-22 19:15:00,24.7,21.7,30.21,SSE,149,1.0,1.0,88,0.00,,,0.00,Wunderground v.1.15,2013-04-23 01:15:00,
2013-04-22 19:20:00,24.6,21.6,30.20,SSE,149,0.0,0.0,88,0.00,,,0.00,Wunderground v.1.15,2013-04-23 01:20:00,
2013-04-22 19:25:00,24.5,21.7,30.20,SE,145,0.0,0.0,89,0.00,,,0.00,Wunderground v.1.15,2013-04-23 01:25:00,
2013-04-22 19:30:00,24.5,21.7,30.20,SE,145,0.0,0.0,89,0.00,,,0.00,Wunderground v.1.15,2013-04-23 01:30:00,
2013-04-22 19:40:00,24.4,21.6,30.22,WSW,250,0.0,2.0,89,0.00,,,0.00,Wunderground v.1.15,2013-04-23 01:40:00,
2013-04-22 19:50:00,24.4,21.9,30.21,WSW,253,1.0,1.0,90,0.00,,,0.00,Wunderground v.1.15,2013-04-23 01:50:00,
2013-04-22 19:55:00,24.4,21.9,30.22,SW,231,0.0,1.0,90,0.00,,,0.00,Wunderground v.1.15,2013-04-23 01:55:00,
2013-04-22 20:00:00,24.3,21.8,30.22,SW,231,0.0,1.0,90,0.00,,,0.00,Wunderground v.1.15,2013-04-23 02:00:00,
2013-04-22 20:05:00,24.3,21.8,30.21,ENE,65,1.0,1.0,90,0.00,,,0.00,Wunderground v.1.15,2013-04-23 02:05:00,
2013-04-22 20:15:00,24.2,22.0,30.24,ENE,65,0.0,1.0,91,0.00,,,0.00,Wunderground v.1.15,2013-04-23 02:15:00,
2013-04-22 20:20:00,24.3,22.1,30.22,East,88,0.0,0.0,91,0.00,,,0.00,Wunderground v.1.15,2013-04-23 02:20:00,
2013-04-22 20:30:00,24.2,22.0,30.24,WSW,237,0.0,1.0,91,0.00,,,0.00,Wunderground v.1.15,2013-04-23 02:30:00,
2013-04-22 20:35:00,24.2,22.0,30.24,East,84,1.0,2.0,91,0.00,,,0.00,Wunderground v.1.15,2013-04-23 02:35:00,
2013-04-22 20:40:00,24.2,22.0,30.24,East,84,1.0,1.0,91,0.00,,,0.00,Wunderground v.1.15,2013-04-23 02:40:00,
2013-04-22 20:45:00,24.2,22.0,30.24,East,91,0.0,1.0,91,0.00,,,0.00,Wunderground v.1.15,2013-04-23 02:45:00,
2013-04-22 20:55:00,23.9,21.7,30.25,SE,135,1.0,1.0,91,0.00,,,0.00,Wunderground v.1.15,2013-04-23 02:55:00,
2013-04-22 21:00:00,23.8,21.6,30.25,SE,135,0.0,0.0,91,0.00,,,0.00,Wunderground v.1.15,2013-04-23 03:00:00,
2013-04-22 21:05:00,23.9,21.7,30.25,SE,135,0.0,0.0,91,0.00,,,0.00,Wunderground v.1.15,2013-04-23 03:05:00,
2013-04-22 21:15:00,23.9,21.7,30.26,SE,135,0.0,0.0,91,0.00,,,0.00,Wunderground v.1.15,2013-04-23 03:15:00,
2013-04-22 21:20:00,23.9,21.7,30.26,SE,135,0.0,0.0,91,0.00,,,0.00,Wunderground v.1.15,2013-04-23 03:20:00,
2013-04-22 21:30:00,23.8,21.6,30.26,SE,135,0.0,0.0,91,0.00,,,0.00,Wunderground v.1.15,2013-04-23 03:30:00,
2013-04-22 21:35:00,23.7,21.5,30.26,SE,135,0.0,0.0,91,0.00,,,0.00,Wunderground v.1.15,2013-04-23 03:35:00,
2013-04-22 21:40:00,23.7,21.5,30.26,ENE,77,0.0,0.0,91,0.00,,,0.00,Wunderground v.1.15,2013-04-23 03:40:00,
2013-04-22 21:45:00,23.6,21.4,30.29,ESE,115,1.0,1.0,91,0.00,,,0.00,Wunderground v.1.15,2013-04-23 03:45:00,
2013-04-22 21:55:00,23.6,21.4,30.25,ENE,65,1.0,1.0,91,0.00,,,0.00,Wunderground v.1.15,2013-04-23 03:55:00,
2013-04-22 22:00:00,23.6,21.4,30.26,SE,124,1.0,1.0,91,0.00,,,0.00,Wunderground v.1.15,2013-04-23 04:00:00,
2013-04-22 22:05:00,23.5,21.3,30.27,SE,124,1.0,1.0,91,0.00,,,0.00,Wunderground v.1.15,2013-04-23 04:05:00,
2013-04-22 22:15:00,23.5,21.3,30.26,ENE,72,1.0,2.0,91,0.00,,,0.00,Wunderground v.1.15,2013-04-23 04:15:00,
2013-04-22 22:20:00,23.4,21.2,30.26,NE,54,1.0,1.0,91,0.00,,,0.00,Wunderground v.1.15,2013-04-23 04:20:00,
2013-04-22 22:25:00,23.4,21.2,30.26,ESE,114,1.0,1.0,91,0.00,,,0.00,Wunderground v.1.15,2013-04-23 04:25:00,
2013-04-22 22:30:00,23.5,21.3,30.27,ESE,114,0.0,0.0,91,0.00,,,0.00,Wunderground v.1.15,2013-04-23 04:30:00,
2013-04-22 22:35:00,23.5,21.3,30.28,SSE,151,0.0,0.0,91,0.00,,,0.00,Wunderground v.1.15,2013-04-23 04:35:00,
2013-04-22 22:45:00,23.5,21.5,30.26,ENE,78,0.0,0.0,92,0.00,,,0.00,Wunderground v.1.15,2013-04-23 04:45:00,
2013-04-22 22:50:00,23.4,21.2,30.25,ESE,105,0.0,0.0,91,0.00,,,0.00,Wunderground v.1.15,2013-04-23 04:50:00,
2013-04-22 22:55:00,23.3,21.1,30.25,SSE,153,0.0,0.0,91,0.00,,,0.00,Wunderground v.1.15,2013-04-23 04:55:00,
2013-04-22 23:00:00,23.2,21.0,30.27,ESE,115,0.0,0.0,91,0.00,,,0.00,Wunderground v.1.15,2013-04-23 05:00:00,
2013-04-22 23:05:00,23.2,21.0,30.26,East,84,0.0,0.0,91,0.00,,,0.00,Wunderground v.1.15,2013-04-23 05:05:00,
2013-04-22 23:15:00,22.9,20.4,30.26,SE,135,0.0,0.0,90,0.00,,,0.00,Wunderground v.1.15,2013-04-23 05:15:00,
2013-04-22 23:20:00,22.9,20.4,30.26,ESE,110,0.0,0.0,90,0.00,,,0.00,Wunderground v.1.15,2013-04-23 05:20:00,
2013-04-22 23:30:00,22.7,20.2,30.25,ENE,71,0.0,0.0,90,0.00,,,0.00,Wunderground v.1.15,2013-04-23 05:30:00,
2013-04-22 23:35:00,22.6,20.1,30.25,SE,129,0.0,0.0,90,0.00,,,0.00,Wunderground v.1.15,2013-04-23 05:35:00,
2013-04-22 23:40:00,22.5,20.0,30.26,ESE,120,0.0,0.0,90,0.00,,,0.00,Wunderground v.1.15,2013-04-23 05:40:00,
2013-04-22 23:45:00,22.5,20.0,30.26,SE,127,0.0,0.0,90,0.00,,,0.00,Wunderground v.1.15,2013-04-23 05:45:00,
2013-04-22 23:50:00,22.4,19.9,30.26,ESE,103,0.0,0.0,90,0.00,,,0.00,Wunderground v.1.15,2013-04-23 05:50:00,
2013-04-22 23:55:00,22.5,20.0,30.26,East,89,0.0,0.0,90,0.00,,,0.00,Wunderground v.1.15,2013-04-23 05:55:00,